»·PEaware :: N9JM L52-L88

N9JM :: L52-L88

FLIGHT INFORMATION

Flight Status: Arrived
Operator: Privately registered:
United States
More flights under this callsign
Pilot: Jared M. (23416)
Aircraft: CESSNA 172 SKYHAWK
(C172)
More flights by this aircraft type
Origin: L52 Oceano Co
United States
Destination: L88 New Cuyama
United States
More flights between these airports :: More routes between these airports
Route: DIRECT
File this flight plan on PilotEdge
Remarks:
Altitude:
(Current/Filed)
7,500ft
Speed:
(Current/Filed)
115kts
Departed: 10-Feb-19 02:39 PM
Arrived: 10-Feb-19 03:50 PM
Distance/Time
Traveled:
47nm/1:11
Distance/Time
To Go:
Arrived

Flight Plot

Page will automatically refresh every two minutes.


Map Options




Map Legend


Flown Route
Filed Route
Departure Airport
Arrival Airport
Navaid (VOR, NDB)
Fix

Horizontal Profiles

Position Reports

Time Latitude Longitude Heading Altitude Ground
Speed
10-Feb-19 14:31 35.103552 -120.624284 214 15ft 0kts
10-Feb-19 14:32 35.103552 -120.624284 214 15ft 0kts
10-Feb-19 14:33 35.103552 -120.624284 214 15ft 0kts
10-Feb-19 14:34 35.103552 -120.624284 214 15ft 0kts
10-Feb-19 14:35 35.103549 -120.624286 214 15ft 0kts
10-Feb-19 14:36 35.103449 -120.624370 214 15ft 0kts
10-Feb-19 14:37 35.103478 -120.625135 224 14ft 0kts
10-Feb-19 14:38 35.098416 -120.617083 127 253ft 77kts
10-Feb-19 14:39 35.087768 -120.596615 121 1345ft 69kts
10-Feb-19 14:40 35.081055 -120.574938 84 2329ft 64kts
10-Feb-19 14:41 35.082666 -120.559085 82 2968ft 63kts
10-Feb-19 14:42 35.082666 -120.559085 82 2968ft 63kts
10-Feb-19 14:43 35.082666 -120.559085 82 2968ft 63kts
10-Feb-19 14:44 35.082666 -120.559085 82 2968ft 63kts
10-Feb-19 14:45 35.086942 -120.545765 62 3377ft 83kts
10-Feb-19 14:46 35.093316 -120.519022 75 4283ft 80kts
10-Feb-19 15:09 35.103552 -120.624284 214 15ft 0kts
10-Feb-19 15:10 35.103552 -120.624284 214 15ft 0kts
10-Feb-19 15:11 35.103552 -120.624284 213 15ft 0kts
10-Feb-19 15:12 35.103492 -120.625139 225 14ft 0kts
10-Feb-19 15:13 35.100985 -120.621279 123 32ft 76kts
10-Feb-19 15:14 35.091169 -120.599109 104 1155ft 69kts
10-Feb-19 15:15 35.089765 -120.573390 101 2174ft 69kts
10-Feb-19 15:16 35.088387 -120.550212 107 3038ft 75kts
10-Feb-19 15:17 35.082452 -120.525549 84 3933ft 71kts
10-Feb-19 15:18 35.082547 -120.501336 99 4727ft 73kts
10-Feb-19 15:19 35.080231 -120.478158 92 5528ft 64kts
10-Feb-19 15:20 35.077125 -120.455524 100 6198ft 68kts
10-Feb-19 15:21 35.074683 -120.432711 97 6846ft 68kts
10-Feb-19 15:22 35.062803 -120.425416 246 7348ft 85kts
10-Feb-19 15:23 35.067944 -120.421404 104 7844ft 94kts
10-Feb-19 15:24 35.060862 -120.387000 101 7867ft 121kts
10-Feb-19 15:25 35.054271 -120.343695 99 7509ft 138kts
10-Feb-19 15:26 35.048309 -120.299202 97 7480ft 129kts
10-Feb-19 15:27 35.042834 -120.256825 100 7610ft 124kts
10-Feb-19 15:28 35.034388 -120.214687 106 7652ft 133kts
10-Feb-19 15:29 35.020750 -120.172603 118 7588ft 136kts
10-Feb-19 15:30 35.003475 -120.133013 108 7684ft 131kts
10-Feb-19 15:31 34.994298 -120.088753 101 7508ft 139kts
10-Feb-19 15:32 34.988878 -120.042063 95 7273ft 140kts
10-Feb-19 15:33 34.984965 -119.995273 98 7109ft 136kts
10-Feb-19 15:34 34.978722 -119.950376 100 7104ft 133kts
10-Feb-19 15:35 34.972227 -119.909265 99 7061ft 115kts
10-Feb-19 15:36 34.966848 -119.873496 102 7173ft 100kts
10-Feb-19 15:37 34.960963 -119.839437 102 7179ft 103kts
10-Feb-19 15:38 34.955873 -119.804972 98 6973ft 118kts
10-Feb-19 15:39 34.950269 -119.760774 97 5926ft 138kts
10-Feb-19 15:40 34.944887 -119.713273 99 4584ft 146kts
10-Feb-19 15:41 34.927566 -119.673819 178 3494ft 123kts
10-Feb-19 15:42 34.921744 -119.700894 320 2834ft 102kts
10-Feb-19 15:43 34.943305 -119.712047 46 2525ft 87kts
10-Feb-19 15:44 34.942996 -119.692362 127 2292ft 74kts
10-Feb-19 15:45 34.929200 -119.678878 225 2525ft 79kts
10-Feb-19 15:46 34.930994 -119.698916 318 2518ft 81kts
10-Feb-19 15:47 34.949514 -119.709379 55 2381ft 87kts
10-Feb-19 15:48 34.941999 -119.690645 115 2157ft 43kts
10-Feb-19 15:49 34.942948 -119.690941 16 2155ft 11kts
10-Feb-19 15:50 34.943191 -119.690854 14 2155ft 0kts
10-Feb-19 15:51 34.943191 -119.690854 14 2155ft 0kts

Navigation Log

Ident Type
Flight plan parsing failed, navigation log unavailable